createdAt,value
2024-01-16T00:01:11.952Z,6.70
2024-01-16T00:03:38.617Z,6.90
2024-01-16T00:06:05.352Z,6.83
2024-01-16T00:08:31.971Z,7.97
2024-01-16T00:10:58.517Z,8.37
2024-01-16T00:13:25.085Z,7.47
2024-01-16T00:15:51.664Z,8.07
2024-01-16T00:18:18.503Z,8.00
2024-01-16T00:20:45.299Z,7.30
2024-01-16T00:23:12.084Z,6.63
2024-01-16T00:25:38.628Z,6.97
2024-01-16T00:28:05.222Z,7.07
2024-01-16T00:30:31.839Z,7.00
2024-01-16T00:32:58.522Z,9.10
2024-01-16T00:35:25.209Z,8.27
2024-01-16T00:37:51.786Z,6.60
2024-01-16T00:40:19.582Z,8.17
2024-01-16T00:42:46.100Z,7.40
2024-01-16T00:45:12.665Z,7.60
2024-01-16T00:47:39.344Z,8.60
2024-01-16T00:50:06.112Z,6.77
2024-01-16T00:52:32.766Z,8.27
2024-01-16T00:54:59.298Z,8.03
2024-01-16T00:57:25.875Z,8.63
2024-01-16T00:59:52.937Z,6.77
2024-01-16T01:02:19.548Z,8.20
2024-01-16T01:04:46.174Z,6.83
2024-01-16T01:07:12.738Z,6.50
2024-01-16T01:09:39.283Z,6.53
2024-01-16T01:12:05.827Z,6.73
2024-01-16T01:14:32.519Z,6.90
2024-01-16T01:16:59.202Z,6.33
2024-01-16T01:19:25.902Z,5.87
2024-01-16T01:21:52.443Z,6.57
2024-01-16T01:24:19.016Z,6.43
2024-01-16T01:26:45.887Z,6.40
2024-01-16T01:29:12.509Z,7.23
2024-01-16T01:31:39.108Z,6.70
2024-01-16T01:34:06.001Z,7.47
2024-01-16T01:36:32.625Z,6.90
2024-01-16T01:38:59.260Z,6.77
2024-01-16T01:41:25.903Z,7.40
2024-01-16T01:43:52.607Z,8.80
2024-01-16T01:46:19.180Z,7.53
2024-01-16T01:48:45.912Z,9.00
2024-01-16T01:51:12.497Z,8.70
2024-01-16T01:53:39.116Z,7.77
2024-01-16T01:56:08.734Z,9.10
2024-01-16T01:58:35.321Z,7.20
2024-01-16T02:01:04.347Z,7.43
2024-01-16T02:03:30.957Z,8.03
2024-01-16T02:05:57.747Z,7.83
2024-01-16T02:08:24.499Z,8.70
2024-01-16T02:10:51.064Z,8.13
2024-01-16T02:13:21.976Z,7.70
2024-01-16T02:15:48.577Z,7.97
2024-01-16T02:18:15.230Z,6.70
2024-01-16T02:20:41.853Z,7.60
2024-01-16T02:23:08.511Z,7.30
2024-01-16T02:25:35.844Z,7.97
2024-01-16T02:28:02.476Z,6.80
2024-01-16T02:30:29.059Z,7.93
2024-01-16T02:32:55.731Z,9.70
2024-01-16T02:35:22.420Z,7.03
2024-01-16T02:37:49.009Z,8.00
2024-01-16T02:40:16.131Z,7.30
2024-01-16T02:42:42.816Z,7.30
2024-01-16T02:45:09.646Z,7.07
2024-01-16T02:47:36.539Z,6.30
2024-01-16T02:50:03.585Z,7.30
2024-01-16T02:52:30.270Z,6.23
2024-01-16T02:54:56.838Z,7.23
2024-01-16T02:57:23.394Z,7.53
2024-01-16T02:59:50.029Z,7.80
2024-01-16T03:02:16.592Z,7.30
2024-01-16T03:04:43.190Z,7.20
2024-01-16T03:07:09.769Z,7.77
2024-01-16T03:09:36.389Z,9.10
2024-01-16T03:12:03.173Z,6.87
2024-01-16T03:14:34.967Z,7.37
2024-01-16T03:17:01.773Z,7.77
2024-01-16T03:19:28.545Z,7.00
2024-01-16T03:21:55.314Z,6.90
2024-01-16T03:24:21.920Z,7.10
2024-01-16T03:26:48.625Z,7.17
2024-01-16T03:29:15.254Z,6.10
2024-01-16T03:31:41.778Z,7.40
2024-01-16T03:34:11.426Z,7.47
2024-01-16T03:36:37.999Z,7.17
2024-01-16T03:39:04.529Z,6.03
2024-01-16T03:41:31.052Z,6.67
2024-01-16T03:43:57.755Z,7.10
2024-01-16T03:46:24.371Z,8.10
2024-01-16T03:48:51.018Z,5.20
2024-01-16T03:51:19.097Z,5.50
2024-01-16T03:53:45.762Z,6.53
2024-01-16T03:56:13.047Z,5.57
2024-01-16T03:58:39.712Z,6.13
2024-01-16T04:01:06.283Z,7.07
2024-01-16T04:03:32.991Z,6.20
2024-01-16T04:05:59.763Z,5.23
2024-01-16T04:08:26.524Z,6.80
2024-01-16T04:10:54.111Z,5.87
2024-01-16T04:13:20.688Z,5.87
2024-01-16T04:15:47.241Z,6.23
2024-01-16T04:18:13.882Z,5.87
2024-01-16T04:20:42.926Z,6.60
2024-01-16T04:23:09.564Z,5.77
2024-01-16T04:25:36.154Z,5.77
2024-01-16T04:28:03.544Z,6.57
2024-01-16T04:30:30.411Z,6.90
2024-01-16T04:32:57.065Z,6.50
2024-01-16T04:35:23.733Z,7.33
2024-01-16T04:37:50.530Z,5.53
2024-01-16T04:40:17.062Z,6.27
2024-01-16T04:42:44.174Z,6.80
2024-01-16T04:45:10.791Z,7.10
2024-01-16T04:47:37.354Z,6.20
2024-01-16T04:50:04.714Z,7.37
2024-01-16T04:52:31.280Z,6.20
2024-01-16T04:54:57.840Z,5.47
2024-01-16T04:57:24.406Z,5.90
2024-01-16T04:59:51.268Z,5.87
2024-01-16T05:02:19.160Z,6.27
2024-01-16T05:04:46.501Z,5.47
2024-01-16T05:07:13.083Z,5.73
2024-01-16T05:09:39.668Z,5.73
2024-01-16T05:12:06.268Z,8.43
2024-01-16T05:14:33.060Z,6.03
2024-01-16T05:16:59.636Z,6.33
2024-01-16T05:19:26.640Z,7.00
2024-01-16T05:21:53.590Z,6.80
2024-01-16T05:24:20.354Z,6.20
2024-01-16T05:26:47.028Z,5.63
2024-01-16T05:29:13.828Z,8.00
2024-01-16T05:31:40.392Z,5.77
2024-01-16T05:34:07.030Z,6.10
2024-01-16T05:36:33.639Z,6.70
2024-01-16T05:39:00.161Z,6.03
2024-01-16T05:41:26.751Z,5.60
2024-01-16T05:43:53.307Z,6.17
2024-01-16T05:46:19.920Z,7.73
2024-01-16T05:48:46.634Z,6.40
2024-01-16T05:51:13.482Z,6.23
2024-01-16T05:53:40.150Z,6.77
2024-01-16T05:56:06.796Z,6.33
2024-01-16T05:58:36.873Z,6.00
2024-01-16T06:01:04.535Z,6.70
2024-01-16T06:03:31.140Z,6.80
2024-01-16T06:05:57.887Z,6.67
2024-01-16T06:08:24.529Z,5.60
2024-01-16T06:10:51.101Z,6.47
2024-01-16T06:13:17.697Z,5.90
2024-01-16T06:15:44.370Z,6.03
2024-01-16T06:18:11.408Z,5.17
2024-01-16T06:20:38.086Z,6.13
2024-01-16T06:23:07.235Z,5.43
2024-01-16T06:25:33.779Z,5.53
2024-01-16T06:28:03.967Z,4.60
2024-01-16T06:30:31.015Z,6.37
2024-01-16T06:32:57.800Z,8.27
2024-01-16T06:35:24.801Z,3.87
2024-01-16T06:37:51.450Z,4.57
2024-01-16T06:40:18.009Z,6.03
2024-01-16T06:42:44.595Z,4.57
2024-01-16T06:45:11.289Z,4.70
2024-01-16T06:47:38.009Z,5.60
2024-01-16T06:50:04.737Z,5.03
2024-01-16T06:52:31.376Z,5.10
2024-01-16T06:54:58.282Z,5.10
2024-01-16T06:57:24.830Z,5.03
2024-01-16T06:59:51.424Z,6.27
2024-01-16T07:02:18.055Z,5.20
2024-01-16T07:04:44.670Z,3.83
2024-01-16T07:07:11.231Z,5.63
2024-01-16T07:09:37.821Z,4.60
2024-01-16T07:12:04.867Z,4.43
2024-01-16T07:14:31.590Z,5.20
2024-01-16T07:16:58.133Z,5.60
2024-01-16T07:19:24.779Z,4.47
2024-01-16T07:21:51.380Z,4.23
2024-01-16T07:24:18.049Z,3.83
2024-01-16T07:26:44.596Z,8.40
2024-01-16T07:29:11.460Z,4.20
2024-01-16T07:31:40.534Z,4.93
2024-01-16T07:34:07.649Z,4.10
2024-01-16T07:36:34.247Z,3.70
2024-01-16T07:39:01.513Z,5.23
2024-01-16T07:41:28.285Z,3.70
2024-01-16T07:43:54.859Z,3.30
2024-01-16T07:46:21.481Z,3.70
2024-01-16T07:48:48.281Z,3.53
2024-01-16T07:51:14.925Z,4.37
2024-01-16T07:53:41.501Z,4.80
2024-01-16T07:56:08.159Z,4.20
2024-01-16T07:58:34.749Z,6.20
2024-01-16T08:01:01.376Z,4.13
2024-01-16T08:03:28.026Z,4.67
2024-01-16T08:05:54.827Z,5.20
2024-01-16T08:08:21.523Z,5.40
2024-01-16T08:10:48.214Z,5.60
2024-01-16T08:13:14.783Z,5.60
2024-01-16T08:15:41.405Z,4.50
2024-01-16T08:18:08.130Z,5.63
2024-01-16T08:20:34.839Z,4.43
2024-01-16T08:23:01.435Z,4.20
2024-01-16T08:25:28.073Z,4.80
2024-01-16T08:27:54.762Z,5.60
2024-01-16T08:30:21.803Z,4.63
2024-01-16T08:32:48.436Z,4.40
2024-01-16T08:35:15.334Z,4.63
2024-01-16T08:37:42.179Z,4.07
2024-01-16T08:40:08.739Z,4.70
2024-01-16T08:42:35.337Z,5.10
2024-01-16T08:45:02.113Z,4.77
2024-01-16T08:47:28.859Z,4.60
2024-01-16T08:49:55.566Z,4.63
2024-01-16T08:52:22.229Z,4.83
2024-01-16T08:54:49.213Z,4.50
2024-01-16T08:57:17.960Z,5.10
2024-01-16T08:59:45.026Z,4.17
2024-01-16T09:02:11.727Z,4.40
2024-01-16T09:04:39.246Z,3.83
2024-01-16T09:07:06.683Z,4.10
2024-01-16T09:09:33.723Z,4.27
2024-01-16T09:12:00.369Z,4.07
2024-01-16T09:14:27.068Z,3.80
2024-01-16T09:16:55.110Z,4.37
2024-01-16T09:19:21.822Z,3.80
2024-01-16T09:21:48.533Z,4.30
2024-01-16T09:24:15.086Z,3.77
2024-01-16T09:26:41.747Z,3.97
2024-01-16T09:29:09.951Z,3.50
2024-01-16T09:31:36.829Z,4.10
2024-01-16T09:34:07.118Z,3.30
2024-01-16T09:36:38.837Z,3.30
2024-01-16T09:39:08.857Z,4.07
2024-01-16T09:41:35.426Z,3.20
2024-01-16T09:44:02.037Z,3.50
2024-01-16T09:46:28.619Z,3.00
2024-01-16T09:48:55.454Z,2.97
2024-01-16T09:51:22.127Z,3.80
2024-01-16T09:53:48.834Z,3.07
2024-01-16T09:56:16.030Z,2.17
2024-01-16T09:58:42.628Z,2.20
2024-01-16T10:01:09.181Z,2.13
2024-01-16T10:03:35.778Z,1.77
2024-01-16T10:06:02.655Z,1.97
2024-01-16T10:08:29.389Z,1.67
2024-01-16T10:10:56.024Z,2.17
2024-01-16T10:13:22.702Z,1.27
2024-01-16T10:15:49.276Z,1.63
2024-01-16T10:18:15.919Z,1.47
2024-01-16T10:20:42.561Z,2.00
2024-01-16T10:23:09.246Z,1.70
2024-01-16T10:25:38.589Z,1.50
2024-01-16T10:28:05.946Z,1.53
2024-01-16T10:30:32.689Z,1.80
2024-01-16T10:32:59.464Z,1.10
2024-01-16T10:35:26.185Z,2.20
2024-01-16T10:37:52.821Z,2.47
2024-01-16T10:40:21.639Z,1.47
2024-01-16T10:42:49.868Z,2.07
2024-01-16T10:45:16.442Z,1.50
2024-01-16T10:47:43.617Z,1.30
2024-01-16T10:50:10.438Z,1.30
2024-01-16T10:52:37.100Z,1.40
2024-01-16T10:55:05.432Z,2.07
2024-01-16T10:57:32.012Z,1.47
2024-01-16T10:59:58.611Z,1.67
2024-01-16T11:02:25.227Z,1.50
2024-01-16T11:04:52.055Z,1.60
2024-01-16T11:07:18.942Z,1.73
2024-01-16T11:09:45.729Z,1.50
2024-01-16T11:12:17.582Z,2.77
2024-01-16T11:14:44.167Z,2.03
2024-01-16T11:17:18.553Z,2.47
2024-01-16T11:20:01.747Z,1.20
2024-01-16T11:22:31.965Z,2.10
2024-01-16T11:24:59.579Z,2.00
2024-01-16T11:27:26.118Z,2.27
2024-01-16T11:29:52.777Z,1.40
2024-01-16T11:32:27.917Z,1.83
2024-01-16T11:34:57.540Z,1.63
2024-01-16T11:37:24.196Z,2.27
2024-01-16T11:39:50.743Z,1.27
2024-01-16T11:42:17.334Z,2.20
2024-01-16T11:44:44.455Z,2.17
2024-01-16T11:47:11.347Z,1.70
2024-01-16T11:49:38.260Z,1.90
2024-01-16T11:52:05.394Z,2.30
2024-01-16T11:54:31.970Z,1.73
2024-01-16T11:56:58.539Z,1.97
2024-01-16T11:59:25.109Z,2.73
2024-01-16T12:01:51.740Z,1.97
2024-01-16T12:04:20.640Z,2.60
2024-01-16T12:06:47.557Z,1.73
2024-01-16T12:09:14.366Z,2.43
2024-01-16T12:11:43.761Z,2.47
2024-01-16T12:14:10.726Z,1.90
2024-01-16T12:16:37.961Z,2.30
2024-01-16T12:19:04.649Z,2.53
2024-01-16T12:21:31.291Z,1.93
2024-01-16T12:24:08.184Z,3.30
2024-01-16T12:26:37.709Z,1.90
2024-01-16T12:29:04.275Z,2.03
2024-01-16T12:31:30.849Z,2.87
2024-01-16T12:34:02.042Z,2.47
2024-01-16T12:36:31.248Z,3.23
2024-01-16T12:38:58.011Z,2.37
2024-01-16T12:41:32.416Z,2.77
2024-01-16T12:44:14.155Z,2.53
2024-01-16T12:46:42.918Z,3.20
2024-01-16T12:49:12.561Z,2.90
2024-01-16T12:51:39.486Z,3.10
2024-01-16T12:54:06.116Z,1.80
2024-01-16T12:56:38.288Z,2.67
2024-01-16T12:59:05.825Z,2.90
2024-01-16T13:01:39.204Z,3.10
2024-01-16T13:04:07.034Z,2.50
2024-01-16T13:06:34.368Z,2.90
2024-01-16T13:09:01.165Z,1.83
2024-01-16T13:11:35.589Z,1.97
2024-01-16T13:14:05.891Z,3.10
2024-01-16T13:16:32.443Z,2.60
2024-01-16T13:18:59.277Z,2.50
2024-01-16T13:21:26.287Z,2.37
2024-01-16T13:23:52.885Z,2.00
2024-01-16T13:26:19.556Z,2.53
2024-01-16T13:28:48.846Z,2.40
2024-01-16T13:31:15.457Z,2.90
2024-01-16T13:33:42.133Z,2.50
2024-01-16T13:36:08.768Z,2.37
2024-01-16T13:38:35.429Z,2.77
2024-01-16T13:41:03.292Z,2.40
2024-01-16T13:43:30.205Z,3.40
2024-01-16T13:45:56.752Z,2.60
2024-01-16T13:48:23.771Z,3.03
2024-01-16T13:50:53.461Z,2.80
2024-01-16T13:53:20.137Z,2.80
2024-01-16T13:55:46.950Z,2.60
2024-01-16T13:58:13.548Z,2.40
2024-01-16T14:00:40.267Z,2.57
2024-01-16T14:03:08.156Z,2.80
2024-01-16T14:05:35.825Z,2.60
2024-01-16T14:08:02.488Z,3.10
2024-01-16T14:10:29.057Z,2.97
2024-01-16T14:12:55.639Z,3.23
2024-01-16T14:15:25.584Z,2.83
2024-01-16T14:17:52.561Z,3.00
2024-01-16T14:20:19.452Z,2.73
2024-01-16T14:22:46.137Z,3.10
2024-01-16T14:25:13.392Z,3.00
2024-01-16T14:27:40.958Z,2.63
2024-01-16T14:30:08.480Z,2.57
2024-01-16T14:32:35.155Z,3.43
2024-01-16T14:35:01.741Z,2.97
2024-01-16T14:37:28.790Z,4.10
2024-01-16T14:39:55.540Z,3.10
2024-01-16T14:42:23.708Z,5.53
2024-01-16T14:44:50.324Z,3.00
2024-01-16T14:47:16.957Z,3.30
2024-01-16T14:49:43.621Z,3.60
2024-01-16T14:52:10.431Z,3.40
2024-01-16T14:54:36.980Z,3.67
2024-01-16T14:57:03.934Z,3.90
2024-01-16T14:59:30.621Z,3.20
2024-01-16T15:01:57.234Z,3.07
2024-01-16T15:04:23.952Z,3.83
2024-01-16T15:06:53.803Z,3.73
2024-01-16T15:09:20.644Z,4.93
2024-01-16T15:11:49.185Z,5.00
2024-01-16T15:14:18.180Z,4.30
2024-01-16T15:16:44.979Z,4.00
2024-01-16T15:19:11.581Z,3.57
2024-01-16T15:21:40.338Z,3.80
2024-01-16T15:24:07.211Z,3.97
2024-01-16T15:26:33.832Z,4.93
2024-01-16T15:29:03.739Z,5.67
2024-01-16T15:31:30.337Z,4.80
2024-01-16T15:33:57.012Z,5.33
2024-01-16T15:36:23.821Z,4.67
2024-01-16T15:38:50.340Z,3.80
2024-01-16T15:41:17.061Z,4.20
2024-01-16T15:43:43.707Z,4.07
2024-01-16T15:46:10.349Z,3.23
2024-01-16T15:48:36.994Z,4.03
2024-01-16T15:51:06.946Z,3.67
2024-01-16T15:53:35.781Z,3.70
2024-01-16T15:56:02.947Z,3.33
2024-01-16T15:58:32.415Z,3.50
2024-01-16T16:00:59.149Z,3.20
2024-01-16T16:03:25.976Z,2.60
2024-01-16T16:05:54.429Z,3.53
2024-01-16T16:08:22.325Z,2.20
2024-01-16T16:10:49.065Z,3.07
2024-01-16T16:13:15.684Z,3.00
2024-01-16T16:15:42.563Z,2.40
2024-01-16T16:18:09.240Z,3.13
2024-01-16T16:20:35.940Z,2.87
2024-01-16T16:23:03.190Z,2.23
2024-01-16T16:25:30.840Z,2.83
2024-01-16T16:27:57.449Z,3.33
2024-01-16T16:30:24.521Z,3.10
2024-01-16T16:32:51.562Z,2.37
2024-01-16T16:35:18.678Z,3.57
2024-01-16T16:37:45.375Z,3.67
2024-01-16T16:40:13.259Z,3.93
2024-01-16T16:42:40.014Z,4.70
2024-01-16T16:45:07.461Z,3.40
2024-01-16T16:47:34.379Z,3.17
2024-01-16T16:50:00.982Z,3.10
2024-01-16T16:52:27.562Z,3.10
2024-01-16T16:54:54.179Z,2.87
2024-01-16T16:57:20.761Z,3.50
2024-01-16T16:59:47.408Z,3.20
2024-01-16T17:02:16.302Z,4.00
2024-01-16T17:04:42.959Z,3.60
2024-01-16T17:07:11.771Z,3.50
2024-01-16T17:09:42.681Z,3.57
2024-01-16T17:12:09.242Z,2.83
2024-01-16T17:14:35.908Z,2.70
2024-01-16T17:17:04.433Z,2.70
2024-01-16T17:19:31.015Z,3.63
2024-01-16T17:21:57.762Z,3.17
2024-01-16T17:24:24.327Z,3.10
2024-01-16T17:26:51.718Z,3.13
2024-01-16T17:29:18.352Z,2.83
2024-01-16T17:31:44.925Z,3.50
2024-01-16T17:34:13.382Z,3.17
2024-01-16T17:36:40.255Z,3.80
2024-01-16T17:39:10.850Z,4.87
2024-01-16T17:41:38.225Z,3.30
2024-01-16T17:44:05.386Z,4.37
2024-01-16T17:46:31.917Z,3.80
2024-01-16T17:48:59.154Z,3.97
2024-01-16T17:51:26.349Z,5.00
2024-01-16T17:53:53.947Z,3.97
2024-01-16T17:56:21.995Z,4.00
2024-01-16T17:58:49.675Z,3.73
2024-01-16T18:01:16.803Z,4.20
2024-01-16T18:03:46.900Z,4.10
2024-01-16T18:06:17.145Z,3.10
2024-01-16T18:08:44.020Z,3.17
2024-01-16T18:11:13.294Z,3.33
2024-01-16T18:13:40.118Z,3.13
2024-01-16T18:16:07.933Z,3.30
2024-01-16T18:18:34.848Z,3.73
2024-01-16T18:21:01.915Z,3.80
2024-01-16T18:23:28.719Z,3.93
2024-01-16T18:25:58.140Z,2.80
2024-01-16T18:28:27.031Z,3.23
2024-01-16T18:30:53.730Z,4.10
2024-01-16T18:33:21.029Z,4.47
2024-01-16T18:35:47.808Z,3.97
2024-01-16T18:38:15.070Z,3.77
2024-01-16T18:40:42.279Z,5.20
2024-01-16T18:43:08.874Z,5.23
2024-01-16T18:45:35.585Z,3.70
2024-01-16T18:48:02.660Z,3.23
2024-01-16T18:50:30.798Z,3.97
2024-01-16T18:52:58.193Z,4.80
2024-01-16T18:55:24.803Z,5.53
2024-01-16T18:57:51.470Z,4.77
2024-01-16T19:00:23.096Z,4.80
2024-01-16T19:02:49.667Z,5.40
2024-01-16T19:05:16.932Z,4.00
2024-01-16T19:07:44.001Z,5.30
2024-01-16T19:10:14.111Z,4.00
2024-01-16T19:12:40.774Z,4.53
2024-01-16T19:15:07.355Z,4.83
2024-01-16T19:17:35.075Z,3.90
2024-01-16T19:20:10.535Z,4.60
2024-01-16T19:22:37.312Z,4.20
2024-01-16T19:25:03.840Z,3.30
2024-01-16T19:27:31.014Z,3.73
2024-01-16T19:29:57.695Z,4.87
2024-01-16T19:32:24.400Z,5.60
2024-01-16T19:34:51.283Z,3.73
2024-01-16T19:37:17.961Z,3.10
2024-01-16T19:39:44.577Z,2.70
2024-01-16T19:42:11.091Z,3.53
2024-01-16T19:44:37.705Z,3.07
2024-01-16T19:47:05.375Z,3.60
2024-01-16T19:49:32.086Z,3.23
2024-01-16T19:51:59.078Z,3.03
2024-01-16T19:54:26.916Z,3.73
2024-01-16T19:56:53.634Z,3.20
2024-01-16T19:59:20.246Z,4.10
2024-01-16T20:01:46.810Z,3.63
2024-01-16T20:04:13.356Z,2.80
2024-01-16T20:06:40.086Z,2.80
2024-01-16T20:09:07.185Z,3.30
2024-01-16T20:11:34.184Z,3.47
2024-01-16T20:14:01.032Z,2.97
2024-01-16T20:16:27.636Z,3.47
2024-01-16T20:18:57.588Z,4.63
2024-01-16T20:21:24.562Z,2.90
2024-01-16T20:23:51.159Z,2.90
2024-01-16T20:26:20.924Z,3.47
2024-01-16T20:28:47.616Z,3.30
2024-01-16T20:31:14.373Z,3.07
2024-01-16T20:33:45.757Z,2.70
2024-01-16T20:36:13.177Z,3.40
2024-01-16T20:38:40.998Z,3.40
2024-01-16T20:41:07.636Z,3.50
2024-01-16T20:43:35.236Z,3.50
2024-01-16T20:46:02.130Z,3.10
2024-01-16T20:48:29.675Z,4.27
2024-01-16T20:50:56.611Z,4.30
2024-01-16T20:53:23.294Z,3.07
2024-01-16T20:55:50.221Z,2.60
2024-01-16T20:58:16.801Z,3.73
2024-01-16T21:00:46.282Z,3.27
2024-01-16T21:03:12.977Z,3.10
2024-01-16T21:05:40.630Z,3.17
2024-01-16T21:08:07.633Z,3.63
2024-01-16T21:10:34.269Z,4.23
2024-01-16T21:13:00.890Z,3.43
2024-01-16T21:15:27.403Z,3.67
2024-01-16T21:17:54.219Z,3.07
2024-01-16T21:20:20.818Z,4.23
2024-01-16T21:22:47.915Z,3.77
2024-01-16T21:25:15.778Z,4.17
2024-01-16T21:27:42.383Z,2.93
2024-01-16T21:30:09.299Z,4.00
2024-01-16T21:32:36.240Z,3.63
2024-01-16T21:35:02.780Z,3.50
2024-01-16T21:37:29.436Z,4.37
2024-01-16T21:39:55.991Z,3.30
2024-01-16T21:42:22.536Z,4.50
2024-01-16T21:44:52.330Z,4.10
2024-01-16T21:47:21.988Z,4.20
2024-01-16T21:49:52.229Z,3.63
2024-01-16T21:52:19.783Z,4.20
2024-01-16T21:54:47.465Z,4.27
2024-01-16T21:57:14.234Z,3.27
2024-01-16T21:59:41.063Z,3.47
2024-01-16T22:02:08.219Z,3.50
2024-01-16T22:04:34.832Z,3.10
2024-01-16T22:07:01.927Z,3.30
2024-01-16T22:09:28.685Z,3.07
2024-01-16T22:11:57.709Z,2.80
2024-01-16T22:14:24.434Z,3.43
2024-01-16T22:16:51.235Z,3.17
2024-01-16T22:19:18.485Z,3.43
2024-01-16T22:21:45.369Z,2.77
2024-01-16T22:24:12.151Z,4.53
2024-01-16T22:26:38.841Z,3.63
2024-01-16T22:29:05.484Z,4.33
2024-01-16T22:31:32.053Z,3.03
2024-01-16T22:33:58.809Z,3.10
2024-01-16T22:36:25.538Z,3.20
2024-01-16T22:38:52.608Z,4.17
2024-01-16T22:41:21.084Z,3.30
2024-01-16T22:43:47.707Z,3.33
2024-01-16T22:46:14.272Z,3.60
2024-01-16T22:48:41.418Z,3.43
2024-01-16T22:51:08.218Z,4.77
2024-01-16T22:53:34.838Z,2.97
2024-01-16T22:56:01.462Z,2.60
2024-01-16T22:58:28.059Z,3.10
2024-01-16T23:00:55.157Z,4.27
2024-01-16T23:03:21.832Z,3.57
2024-01-16T23:05:48.530Z,3.00
2024-01-16T23:08:15.686Z,3.70
2024-01-16T23:10:42.630Z,2.87
2024-01-16T23:13:11.612Z,4.77
2024-01-16T23:15:38.206Z,3.90
2024-01-16T23:18:06.849Z,4.97
2024-01-16T23:20:33.524Z,3.70
2024-01-16T23:23:00.458Z,4.20
2024-01-16T23:25:27.264Z,4.77
2024-01-16T23:27:53.853Z,4.10
2024-01-16T23:30:20.481Z,3.67
2024-01-16T23:32:47.162Z,3.50
2024-01-16T23:35:13.757Z,3.80
2024-01-16T23:37:42.349Z,3.60
2024-01-16T23:40:10.252Z,3.90
2024-01-16T23:42:39.293Z,3.97
2024-01-16T23:45:11.587Z,3.93
2024-01-16T23:47:45.080Z,4.17
2024-01-16T23:50:12.684Z,4.30
2024-01-16T23:52:40.001Z,3.30
2024-01-16T23:55:07.905Z,3.70
2024-01-16T23:57:34.435Z,4.07
